Time;durP1;ratioP1;P1;durP2;ratioP2;P2;SDS_P1;SDS_P2;PMS_P1;PMS_P2;Temp;Humidity;BMP_temperature;BMP_pressure;BME280_temperature;BME280_humidity;BME280_pressure;Samples;Min_cycle;Max_cycle;Signal;HPM_P1;HPM_P2
2022/02/19 00:00:35;;;;;;;10.80;3.47;;;;;;;7.38;51.58;99680.78;1339106;97;21492;-86
2022/02/19 00:03:03;;;;;;;10.07;2.87;;;;;;;7.37;51.80;99682.59;1344809;97;21403;-87
2022/02/19 00:05:30;;;;;;;7.60;2.43;;;;;;;7.33;51.90;99670.67;1332648;97;21373;-88
2022/02/19 00:07:56;;;;;;;14.00;3.10;;;;;;;7.31;52.02;99665.21;1349402;97;22980;-88
2022/02/19 00:10:22;;;;;;;10.80;2.80;;;;;;;7.27;52.02;99662.05;1350446;96;22644;-87
2022/02/19 00:12:49;;;;;;;11.17;2.60;;;;;;;7.28;52.43;99657.61;1405093;92;21383;-85
2022/02/19 00:15:15;;;;;;;11.57;3.50;;;;;;;7.24;52.16;99647.38;1403696;93;21360;-87
2022/02/19 00:17:41;;;;;;;13.67;3.63;;;;;;;7.23;52.04;99650.98;1407456;93;21909;-86
2022/02/19 00:20:12;;;;;;;12.77;3.23;;;;;;;7.23;51.88;99659.38;1404296;93;21419;-87
2022/02/19 00:22:37;;;;;;;11.63;4.20;;;;;;;7.21;52.15;99658.19;1371735;95;21440;-87
2022/02/19 00:25:04;;;;;;;12.97;3.30;;;;;;;7.21;51.83;99652.92;1364626;96;21834;-86
2022/02/19 00:27:30;;;;;;;9.40;2.60;;;;;;;7.20;51.96;99652.59;1378855;94;22562;-85
2022/02/19 00:29:56;;;;;;;10.33;2.70;;;;;;;7.19;51.96;99644.38;1405480;92;21523;-86
2022/02/19 00:32:22;;;;;;;8.63;2.43;;;;;;;7.19;51.58;99650.09;1420778;92;22343;-86
2022/02/19 00:34:48;;;;;;;9.57;2.80;;;;;;;7.18;51.54;99632.16;1421031;92;22293;-85
2022/02/19 00:37:14;;;;;;;8.27;2.30;;;;;;;7.22;50.71;99645.86;1418847;92;21330;-85
2022/02/19 00:39:40;;;;;;;10.33;2.40;;;;;;;7.28;50.57;99648.39;1413322;92;21360;-85
2022/02/19 00:42:07;;;;;;;7.07;2.43;;;;;;;7.28;50.54;99637.41;1427993;91;21431;-86
2022/02/19 00:44:33;;;;;;;10.53;2.77;;;;;;;7.31;50.30;99636.25;1421264;92;21426;-86
2022/02/19 00:47:00;;;;;;;13.83;2.77;;;;;;;7.29;50.22;99630.33;1422003;92;21404;-86
2022/02/19 00:49:26;;;;;;;7.73;2.47;;;;;;;7.32;49.88;99615.56;1431904;92;22292;-86
2022/02/19 00:51:52;;;;;;;10.40;3.00;;;;;;;7.34;49.79;99633.36;1426177;92;21396;-86
2022/02/19 00:54:18;;;;;;;10.37;2.00;;;;;;;7.34;49.70;99618.88;1425244;92;21411;-85
2022/02/19 00:56:44;;;;;;;7.23;2.63;;;;;;;7.32;50.16;99616.88;1427592;91;22283;-86
2022/02/19 00:59:10;;;;;;;12.47;2.67;;;;;;;7.29;50.02;99610.09;1420410;91;21417;-85
2022/02/19 01:01:38;;;;;;;12.37;3.00;;;;;;;7.26;50.39;99616.97;1428418;91;21338;-86
2022/02/19 01:04:04;;;;;;;8.67;2.60;;;;;;;7.21;50.37;99604.23;1429698;92;21374;-88
2022/02/19 01:06:31;;;;;;;11.90;3.20;;;;;;;7.17;50.68;99610.78;1424723;92;22746;-85
2022/02/19 01:08:58;;;;;;;8.73;2.93;;;;;;;7.14;50.91;99609.76;1394447;92;21619;-86
2022/02/19 01:11:25;;;;;;;15.63;3.23;;;;;;;7.08;50.85;99611.66;1427658;91;21550;-86
2022/02/19 01:13:51;;;;;;;11.47;2.83;;;;;;;7.05;50.96;99608.00;1423406;91;21381;-86
2022/02/19 01:16:18;;;;;;;11.83;2.73;;;;;;;7.05;51.03;99615.89;1430554;91;21419;-85
2022/02/19 01:18:44;;;;;;;8.23;2.30;;;;;;;7.04;51.00;99616.02;1431475;91;21381;-85
2022/02/19 01:21:11;;;;;;;9.63;3.13;;;;;;;6.99;50.85;99613.81;1432272;91;21352;-85
2022/02/19 01:23:37;;;;;;;12.73;2.57;;;;;;;6.98;51.06;99612.17;1428372;91;21403;-86
2022/02/19 01:26:03;;;;;;;12.30;3.13;;;;;;;6.95;51.19;99617.23;1439807;91;21337;-85
2022/02/19 01:28:30;;;;;;;7.57;2.67;;;;;;;6.94;51.04;99595.85;1437434;91;21361;-88
2022/02/19 01:30:59;;;;;;;13.97;2.53;;;;;;;6.97;50.85;99602.63;1428132;91;21531;-87
2022/02/19 01:33:25;;;;;;;8.00;2.60;;;;;;;6.99;51.11;99597.57;1437930;91;21589;-89
2022/02/19 01:35:52;;;;;;;10.93;3.23;;;;;;;7.03;50.97;99584.95;1429315;91;22490;-87
2022/02/19 01:38:18;;;;;;;8.20;2.00;;;;;;;7.06;51.05;99585.97;1432298;91;21515;-87
2022/02/19 01:40:45;;;;;;;12.33;3.33;;;;;;;7.12;50.87;99574.86;1429143;91;21514;-87
2022/02/19 01:43:11;;;;;;;12.93;3.20;;;;;;;7.14;50.23;99572.91;1430232;91;22225;-88
2022/02/19 01:45:38;;;;;;;10.50;2.40;;;;;;;7.21;50.30;99575.28;1441893;91;21440;-88
2022/02/19 01:48:05;;;;;;;9.10;2.87;;;;;;;7.27;50.47;99574.37;1429807;91;22268;-87
2022/02/19 01:50:31;;;;;;;10.13;2.47;;;;;;;7.27;50.41;99579.14;1419893;91;21470;-88
2022/02/19 01:53:00;;;;;;;10.60;3.00;;;;;;;7.27;50.60;99570.42;1427822;91;22422;-87
2022/02/19 01:55:27;;;;;;;10.07;2.53;;;;;;;7.29;50.53;99556.63;1429181;91;21411;-88
2022/02/19 01:57:54;;;;;;;8.50;2.70;;;;;;;7.31;50.42;99559.92;1427589;91;21419;-87
2022/02/19 02:00:20;;;;;;;11.53;2.70;;;;;;;7.33;50.37;99562.75;1435455;91;21478;-86
2022/02/19 02:02:47;;;;;;;10.70;3.07;;;;;;;7.36;50.25;99555.05;1414230;91;21396;-87
2022/02/19 02:05:13;;;;;;;11.20;2.87;;;;;;;7.38;50.56;99552.61;1429692;91;21389;-87
2022/02/19 02:07:39;;;;;;;14.43;2.87;;;;;;;7.42;50.45;99556.63;1431494;91;22283;-88
2022/02/19 02:10:06;;;;;;;5.67;2.17;;;;;;;7.44;50.33;99565.67;1425568;91;23308;-86
2022/02/19 02:12:34;;;;;;;11.00;2.77;;;;;;;7.45;50.16;99560.73;1408514;91;22349;-87
2022/02/19 02:15:01;;;;;;;9.60;3.07;;;;;;;7.45;50.33;99550.20;1413847;93;21432;-86
2022/02/19 02:17:27;;;;;;;7.87;2.07;;;;;;;7.44;50.50;99557.77;1398925;93;21343;-87
2022/02/19 02:19:54;;;;;;;10.23;3.57;;;;;;;7.43;50.59;99551.69;1405936;93;22399;-86
2022/02/19 02:22:20;;;;;;;9.73;2.87;;;;;;;7.40;50.96;99551.98;1391516;93;21419;-86
2022/02/19 02:24:48;;;;;;;14.90;4.23;;;;;;;7.38;50.81;99549.16;1402639;93;21595;-86
2022/02/19 02:27:14;;;;;;;14.57;3.80;;;;;;;7.37;51.02;99546.20;1398423;93;21396;-88
2022/02/19 02:29:44;;;;;;;9.13;2.53;;;;;;;7.34;51.19;99557.02;1398804;93;21395;-86
2022/02/19 02:32:10;;;;;;;9.80;3.83;;;;;;;7.35;51.34;99563.94;1408889;93;21469;-88
2022/02/19 02:34:54;;;;;;;16.20;3.17;;;;;;;7.31;51.39;99565.19;1400047;93;21417;-87
2022/02/19 02:37:20;;;;;;;12.93;3.37;;;;;;;7.27;51.71;99568.61;1405557;93;22312;-86
2022/02/19 02:39:48;;;;;;;9.00;3.23;;;;;;;7.20;51.67;99561.80;1397929;93;21424;-86
2022/02/19 02:42:16;;;;;;;10.33;3.00;;;;;;;7.19;52.02;99583.84;1400735;93;21352;-86
2022/02/19 02:44:42;;;;;;;19.77;2.90;;;;;;;7.16;52.15;99589.40;1400127;93;21424;-87
2022/02/19 02:47:09;;;;;;;8.47;4.23;;;;;;;7.11;52.21;99586.37;1401903;93;23418;-88
2022/02/19 02:49:37;;;;;;;10.00;3.07;;;;;;;7.09;52.39;99576.47;1402857;93;21418;-86
2022/02/19 02:52:07;;;;;;;9.37;2.60;;;;;;;7.09;52.55;99593.57;1403819;93;21523;-85
2022/02/19 02:54:34;;;;;;;10.90;2.85;;;;;;;7.06;52.61;99580.70;1401620;93;21307;-89
2022/02/19 02:57:00;;;;;;;12.13;2.70;;;;;;;7.08;52.47;99567.39;1406323;93;21493;-86
2022/02/19 02:59:26;;;;;;;10.47;2.80;;;;;;;7.08;52.74;99560.34;1399948;93;22290;-86
2022/02/19 03:01:52;;;;;;;10.37;2.80;;;;;;;7.06;52.84;99563.60;1401453;93;21431;-87
2022/02/19 03:04:18;;;;;;;7.17;2.67;;;;;;;7.04;53.21;99573.93;1402072;92;21484;-85
2022/02/19 03:06:44;;;;;;;7.53;3.07;;;;;;;6.99;53.31;99568.63;1402270;93;21395;-86
2022/02/19 03:09:11;;;;;;;11.37;2.97;;;;;;;6.95;53.63;99578.27;1402685;93;21470;-89
2022/02/19 03:11:37;;;;;;;10.43;3.43;;;;;;;6.91;53.79;99578.22;1405319;91;21463;-87
2022/02/19 03:14:05;;;;;;;9.23;3.17;;;;;;;6.88;54.00;99579.83;1418754;92;21523;-89
2022/02/19 03:16:33;;;;;;;17.20;3.70;;;;;;;6.86;54.23;99589.66;1415615;92;21640;-88
2022/02/19 03:18:59;;;;;;;11.73;3.40;;;;;;;6.83;54.24;99588.63;1420797;92;22125;-87
2022/02/19 03:21:25;;;;;;;12.50;3.63;;;;;;;6.80;54.42;99591.06;1420747;92;22520;-86
2022/02/19 03:23:52;;;;;;;10.30;3.23;;;;;;;6.81;54.46;99602.41;1418066;92;21634;-87
2022/02/19 03:26:19;;;;;;;10.63;3.20;;;;;;;6.80;54.55;99594.18;1419492;92;21603;-85
2022/02/19 03:28:46;;;;;;;10.63;2.40;;;;;;;6.76;54.90;99593.16;1430916;92;21433;-87
2022/02/19 03:31:12;;;;;;;7.93;2.80;;;;;;;6.76;54.83;99590.98;1418792;91;21330;-86
2022/02/19 03:33:38;;;;;;;11.63;3.47;;;;;;;6.76;55.04;99593.16;1419205;92;22394;-86
2022/02/19 03:36:04;;;;;;;8.00;3.10;;;;;;;6.77;55.12;99586.91;1415359;92;21374;-85
2022/02/19 03:38:31;;;;;;;8.70;3.30;;;;;;;6.78;55.45;99577.22;1429441;92;21360;-87
2022/02/19 03:40:57;;;;;;;14.33;3.90;;;;;;;6.80;55.58;99596.81;1415895;91;22292;-88
2022/02/19 03:43:23;;;;;;;13.17;3.33;;;;;;;6.82;55.34;99610.63;1415163;92;21493;-82
2022/02/19 03:45:49;;;;;;;12.23;3.13;;;;;;;6.83;55.93;99592.58;1424479;91;22254;-81
2022/02/19 03:48:15;;;;;;;11.77;3.37;;;;;;;6.85;55.97;99609.02;1419032;92;21515;-82
2022/02/19 03:50:41;;;;;;;10.57;3.97;;;;;;;6.87;56.07;99608.40;1429793;92;22839;-82
2022/02/19 03:53:07;;;;;;;11.17;3.50;;;;;;;6.87;56.32;99609.72;1424900;91;21382;-82
2022/02/19 03:55:33;;;;;;;7.30;2.80;;;;;;;6.88;56.46;99612.70;1418691;91;21523;-82
2022/02/19 03:57:59;;;;;;;8.30;3.23;;;;;;;6.90;56.56;99609.42;1426221;92;21382;-83
2022/02/19 04:00:26;;;;;;;8.07;3.00;;;;;;;6.92;56.55;99608.31;1423824;92;21493;-84
2022/02/19 04:02:52;;;;;;;5.90;2.70;;;;;;;6.94;56.72;99613.45;1418066;91;21374;-84
2022/02/19 04:05:18;;;;;;;10.63;3.10;;;;;;;6.94;56.82;99601.11;1415083;91;22291;-85
2022/02/19 04:07:45;;;;;;;9.57;3.73;;;;;;;6.98;56.64;99605.59;1427155;91;21359;-85
2022/02/19 04:10:12;;;;;;;10.37;3.40;;;;;;;7.00;56.67;99607.59;1422312;91;21404;-84
2022/02/19 04:12:38;;;;;;;12.00;3.67;;;;;;;7.05;56.68;99622.48;1425332;91;21493;-84
2022/02/19 04:15:05;;;;;;;9.57;3.90;;;;;;;7.09;56.52;99629.09;1407558;92;21301;-86
2022/02/19 04:17:31;;;;;;;16.20;4.07;;;;;;;7.14;56.35;99630.81;1416148;92;21583;-82
2022/02/19 04:19:57;;;;;;;9.23;3.90;;;;;;;7.18;56.47;99633.48;1417285;92;21603;-81
2022/02/19 04:22:24;;;;;;;13.03;3.73;;;;;;;7.23;56.19;99627.80;1430548;92;22431;-80
2022/02/19 04:24:51;;;;;;;8.03;3.43;;;;;;;7.26;56.25;99631.94;1422623;92;21588;-81
2022/02/19 04:27:19;;;;;;;12.00;3.10;;;;;;;7.27;56.37;99629.15;1425239;92;22024;-81
2022/02/19 04:29:46;;;;;;;8.23;4.33;;;;;;;7.27;56.30;99634.91;1424295;91;21529;-82
2022/02/19 04:32:12;;;;;;;10.77;3.47;;;;;;;7.26;56.21;99637.20;1426432;91;21603;-81
2022/02/19 04:34:39;;;;;;;13.07;3.97;;;;;;;7.27;56.27;99631.78;1430291;91;22593;-84
2022/02/19 04:37:05;;;;;;;10.90;3.07;;;;;;;7.28;56.05;99628.66;1421265;92;21552;-83
2022/02/19 04:39:31;;;;;;;12.20;4.60;;;;;;;7.28;56.14;99628.66;1415245;92;21443;-84
2022/02/19 04:41:58;;;;;;;10.87;3.60;;;;;;;7.29;56.10;99636.91;1410981;92;22335;-84
2022/02/19 04:44:24;;;;;;;8.90;3.60;;;;;;;7.27;56.05;99641.48;1433150;92;21456;-85
2022/02/19 04:46:50;;;;;;;8.67;2.90;;;;;;;7.27;55.96;99635.73;1416708;92;21353;-83
2022/02/19 04:49:16;;;;;;;12.63;3.47;;;;;;;7.24;56.00;99625.49;1423125;92;21410;-84
2022/02/19 04:51:42;;;;;;;14.43;4.57;;;;;;;7.21;56.18;99633.19;1427148;92;21352;-83
2022/02/19 04:54:09;;;;;;;11.40;3.97;;;;;;;7.19;56.13;99644.38;1431245;92;21449;-81
2022/02/19 04:56:35;;;;;;;6.80;3.13;;;;;;;7.16;56.12;99649.92;1413219;91;22304;-82
2022/02/19 04:59:01;;;;;;;15.57;4.80;;;;;;;7.13;56.04;99644.92;1414838;92;21581;-83
2022/02/19 05:01:27;;;;;;;9.00;3.57;;;;;;;7.09;56.03;99642.74;1417450;91;22460;-84
2022/02/19 05:03:54;;;;;;;8.43;3.57;;;;;;;7.04;56.19;99633.95;1425163;91;21483;-84
2022/02/19 05:06:21;;;;;;;9.03;3.43;;;;;;;6.98;56.44;99650.31;1431355;92;21478;-84
2022/02/19 05:08:47;;;;;;;10.10;3.53;;;;;;;6.92;56.67;99631.98;1426381;92;22513;-84
2022/02/19 05:11:13;;;;;;;14.33;5.13;;;;;;;6.88;56.78;99636.38;1407687;92;21346;-83
2022/02/19 05:13:41;;;;;;;10.53;3.77;;;;;;;6.85;56.92;99635.33;1415056;92;21651;-82
2022/02/19 05:16:07;;;;;;;8.83;2.73;;;;;;;6.80;57.09;99644.15;1419946;92;22644;-80
2022/02/19 05:18:33;;;;;;;16.40;5.40;;;;;;;6.73;57.27;99632.89;1414718;92;21448;-82
2022/02/19 05:20:59;;;;;;;8.93;3.13;;;;;;;6.69;57.55;99628.87;1410738;92;22313;-80
2022/02/19 05:23:25;;;;;;;10.63;3.80;;;;;;;6.62;57.93;99643.57;1405595;93;21492;-81
2022/02/19 05:25:51;;;;;;;7.27;2.37;;;;;;;6.58;58.09;99640.03;1415158;92;21412;-82
2022/02/19 05:28:17;;;;;;;13.00;3.73;;;;;;;6.55;57.91;99646.40;1418560;92;21433;-82
2022/02/19 05:30:43;;;;;;;11.10;4.90;;;;;;;6.50;58.22;99642.05;1405570;91;21434;-83
2022/02/19 05:33:10;;;;;;;9.53;4.13;;;;;;;6.45;58.58;99646.91;1410812;92;21420;-81
2022/02/19 05:35:36;;;;;;;11.50;5.43;;;;;;;6.42;58.92;99648.02;1406629;93;22513;-81
2022/02/19 05:38:02;;;;;;;12.37;4.27;;;;;;;6.36;59.23;99648.59;1407556;93;21530;-82
2022/02/19 05:40:28;;;;;;;8.80;4.30;;;;;;;6.33;59.53;99640.98;1409162;93;21509;-82
2022/02/19 05:42:54;;;;;;;13.33;4.57;;;;;;;6.31;59.78;99642.91;1401537;93;21642;-82
2022/02/19 05:45:23;;;;;;;16.40;5.23;;;;;;;6.29;59.87;99647.47;1400842;93;22409;-82
2022/02/19 05:47:49;;;;;;;11.30;4.33;;;;;;;6.25;60.30;99646.92;1406857;93;22349;-82
2022/02/19 05:50:15;;;;;;;11.40;4.50;;;;;;;6.23;60.34;99654.10;1403814;93;21966;-84
2022/02/19 05:52:41;;;;;;;16.30;5.77;;;;;;;6.21;60.67;99657.34;1403862;93;21346;-83
2022/02/19 05:55:08;;;;;;;15.13;5.13;;;;;;;6.20;60.76;99660.13;1407946;93;21501;-83
2022/02/19 05:57:41;;;;;;;14.50;4.90;;;;;;;6.19;60.63;99669.81;1405376;92;21360;-83
2022/02/19 06:00:09;;;;;;;13.30;4.13;;;;;;;6.17;61.09;99675.68;1407343;93;22446;-83
2022/02/19 06:02:36;;;;;;;14.50;3.47;;;;;;;6.15;61.16;99689.43;1407636;93;21353;-83
2022/02/19 06:05:04;;;;;;;13.47;4.70;;;;;;;6.13;61.38;99691.39;1406527;93;21361;-82
2022/02/19 06:07:30;;;;;;;8.77;3.57;;;;;;;6.13;61.33;99696.64;1401172;92;21411;-83
2022/02/19 06:09:56;;;;;;;15.80;5.33;;;;;;;6.12;61.59;99697.59;1403344;92;21368;-83
2022/02/19 06:12:23;;;;;;;13.87;4.80;;;;;;;6.10;61.81;99696.92;1400762;93;21527;-82
2022/02/19 06:14:49;;;;;;;11.97;4.67;;;;;;;6.07;61.90;99708.53;1420309;93;21545;-83
2022/02/19 06:17:15;;;;;;;13.03;4.53;;;;;;;6.06;62.17;99715.22;1393931;93;22134;-83
2022/02/19 06:19:41;;;;;;;11.37;4.93;;;;;;;6.00;62.57;99700.83;1385692;93;21410;-83
2022/02/19 06:22:09;;;;;;;21.07;5.60;;;;;;;6.00;62.57;99700.83;1410963;93;21478;-83
2022/02/19 06:24:35;;;;;;;14.57;5.43;;;;;;;6.05;62.54;99720.13;1408324;93;21426;-82
2022/02/19 06:27:04;;;;;;;17.03;5.90;;;;;;;6.03;62.83;99715.48;1410180;92;23010;-82
2022/02/19 06:29:30;;;;;;;15.63;5.67;;;;;;;6.03;62.65;99712.37;1407546;93;22188;-83
2022/02/19 06:31:56;;;;;;;13.47;5.33;;;;;;;6.03;62.66;99722.05;1415430;93;21389;-83
2022/02/19 06:34:22;;;;;;;14.07;5.13;;;;;;;6.01;63.03;99731.86;1408986;92;23294;-83
2022/02/19 06:36:48;;;;;;;24.00;5.43;;;;;;;6.01;63.08;99725.29;1417598;93;22267;-84
2022/02/19 06:39:15;;;;;;;19.57;5.70;;;;;;;5.98;63.51;99730.33;1411037;93;22139;-82
2022/02/19 06:41:41;;;;;;;15.67;5.43;;;;;;;5.99;63.40;99741.69;1404493;93;23289;-83
2022/02/19 06:44:07;;;;;;;17.53;7.00;;;;;;;5.95;64.01;99745.05;1408115;93;21611;-85
2022/02/19 06:46:33;;;;;;;15.60;5.03;;;;;;;5.95;64.01;99745.05;1399101;91;22336;-85
2022/02/19 06:48:59;;;;;;;13.27;5.57;;;;;;;6.02;64.19;99757.19;1397498;91;21441;-83
2022/02/19 06:51:27;;;;;;;15.10;5.90;;;;;;;6.02;64.33;99766.38;1420601;91;21404;-85
2022/02/19 06:53:56;;;;;;;19.17;6.77;;;;;;;6.04;64.34;99761.80;1422366;91;21397;-84
2022/02/19 06:56:24;;;;;;;12.63;5.60;;;;;;;6.04;64.17;99771.84;1426634;91;22087;-83
2022/02/19 06:58:52;;;;;;;11.73;5.87;;;;;;;6.04;64.17;99771.84;1425379;91;22363;-83
2022/02/19 07:01:19;;;;;;;12.33;6.37;;;;;;;6.01;64.54;99784.39;1428341;91;21381;-85
2022/02/19 07:03:45;;;;;;;17.00;8.07;;;;;;;6.00;64.72;99802.45;1424971;91;22358;-85
2022/02/19 07:06:11;;;;;;;21.27;6.73;;;;;;;6.00;64.72;99802.45;1424393;91;21404;-84
2022/02/19 07:08:37;;;;;;;14.60;6.60;;;;;;;5.98;64.53;99802.56;1410471;93;22557;-84
2022/02/19 07:11:03;;;;;;;17.73;7.10;;;;;;;5.98;65.14;99808.30;1408501;92;21426;-83
2022/02/19 07:13:30;;;;;;;11.20;5.10;;;;;;;6.02;65.42;99813.17;1387309;93;21560;-81
2022/02/19 07:15:56;;;;;;;12.17;5.70;;;;;;;5.99;65.36;99808.67;1412373;92;21501;-82
2022/02/19 07:18:22;;;;;;;9.80;5.57;;;;;;;5.99;65.36;99808.67;1408017;92;22306;-81
2022/02/19 07:20:49;;;;;;;15.53;6.83;;;;;;;5.98;65.45;99813.56;1417764;92;21360;-81
2022/02/19 07:23:15;;;;;;;20.57;6.70;;;;;;;5.95;65.53;99817.77;1425095;92;21286;-81
2022/02/19 07:25:42;;;;;;;18.73;6.93;;;;;;;5.95;65.53;99817.77;1422475;91;22329;-81
2022/02/19 07:28:08;;;;;;;16.47;5.70;;;;;;;5.96;66.04;99820.28;1400535;91;22206;-81
2022/02/19 07:30:38;;;;;;;13.17;5.33;;;;;;;5.96;66.04;99820.28;1416551;92;22278;-81
2022/02/19 07:33:02;;;;;;;12.10;6.77;;;;;;;5.96;66.66;99840.46;1410339;92;21470;-81
2022/02/19 07:35:28;;;;;;;15.07;7.13;;;;;;;5.97;66.66;99834.23;1418139;92;22769;-81
2022/02/19 07:37:54;;;;;;;15.93;5.90;;;;;;;5.98;66.79;99834.58;1421914;91;21308;-81
2022/02/19 07:40:20;;;;;;;25.03;9.10;;;;;;;5.95;67.08;99839.61;1399532;93;21442;-82
2022/02/19 07:42:46;;;;;;;20.00;8.53;;;;;;;5.98;66.55;99838.02;1404609;92;21390;-81
2022/02/19 07:45:12;;;;;;;19.50;7.53;;;;;;;6.04;66.84;99853.73;1422163;92;21366;-82
2022/02/19 07:47:38;;;;;;;23.67;7.37;;;;;;;6.03;67.13;99860.80;1427045;92;21419;-82
2022/02/19 07:58:23;;;;;;;22.83;8.90;;;;;;;6.17;67.55;99878.00;1416085;91;22334;-83
2022/02/19 08:00:58;;;;;;;23.67;8.30;;;;;;;6.18;67.68;99890.16;1418142;92;22298;-83
2022/02/19 08:03:28;;;;;;;22.00;10.73;;;;;;;6.18;67.68;99890.16;1421916;92;22336;-83
2022/02/19 08:05:55;;;;;;;17.70;8.03;;;;;;;6.23;67.62;99895.86;1405106;93;21441;-83
2022/02/19 08:08:23;;;;;;;23.47;10.77;;;;;;;6.24;67.72;99897.55;1404244;93;22936;-81
2022/02/19 08:10:51;;;;;;;25.40;9.23;;;;;;;6.27;67.64;99889.39;1408271;90;21415;-84
2022/02/19 08:13:20;;;;;;;27.77;9.70;;;;;;;6.30;67.85;99898.33;1420951;92;21555;-82
2022/02/19 08:15:46;;;;;;;27.87;10.77;;;;;;;6.35;67.92;99898.39;1420104;92;21436;-82
2022/02/19 08:18:14;;;;;;;23.73;9.80;;;;;;;6.42;67.65;99907.42;1422562;91;21411;-82
2022/02/19 08:20:44;;;;;;;17.83;7.67;;;;;;;6.46;67.67;99924.58;1409241;92;21507;-82
2022/02/19 08:23:12;;;;;;;19.93;9.00;;;;;;;6.50;67.30;99909.73;1425946;92;21337;-82
2022/02/19 08:25:39;;;;;;;17.83;8.07;;;;;;;6.54;67.62;99912.43;1422866;92;22482;-82
2022/02/19 08:28:07;;;;;;;18.67;8.73;;;;;;;6.58;66.94;99907.73;1416257;90;21421;-83
2022/02/19 08:30:36;;;;;;;18.17;8.00;;;;;;;6.61;67.25;99900.88;1407419;92;21335;-83
2022/02/19 08:33:05;;;;;;;19.23;9.63;;;;;;;6.65;67.13;99897.03;1394553;94;21405;-82
2022/02/19 08:35:31;;;;;;;18.53;6.60;;;;;;;6.72;67.04;99902.09;1391856;94;21523;-82
2022/02/19 08:37:58;;;;;;;17.67;7.07;;;;;;;6.82;66.75;99901.27;1398615;94;21553;-82
2022/02/19 08:40:24;;;;;;;15.83;7.13;;;;;;;6.90;66.47;99901.42;1384252;94;21399;-82
2022/02/19 08:42:51;;;;;;;17.00;7.13;;;;;;;6.98;66.03;99898.94;1378114;94;21450;-83
2022/02/19 08:45:18;;;;;;;19.43;9.07;;;;;;;7.04;65.69;99902.83;1383640;94;21435;-82
2022/02/19 08:47:46;;;;;;;17.60;6.57;;;;;;;7.12;65.37;99906.42;1373774;95;21540;-82
2022/02/19 08:50:14;;;;;;;25.67;11.40;;;;;;;7.20;64.81;99908.38;1369329;95;21429;-83
2022/02/19 08:52:43;;;;;;;15.30;6.10;;;;;;;7.27;64.65;99912.59;1374469;95;22257;-83
2022/02/19 08:55:11;;;;;;;14.17;5.70;;;;;;;7.31;63.85;99908.70;1366889;95;21407;-82
2022/02/19 08:57:37;;;;;;;10.37;5.40;;;;;;;7.37;63.84;99910.80;1373170;95;22346;-82
2022/02/19 09:00:10;;;;;;;23.87;6.53;;;;;;;7.43;63.74;99918.97;1369841;95;21378;-81
2022/02/19 09:02:37;;;;;;;16.20;6.10;;;;;;;7.48;63.75;99922.51;1386400;95;21606;-82
2022/02/19 09:05:09;;;;;;;13.83;6.03;;;;;;;7.54;63.76;99927.21;1373297;95;21584;-82
2022/02/19 09:07:43;;;;;;;15.17;5.60;;;;;;;7.58;63.83;99929.06;1371127;95;21406;-82
2022/02/19 09:10:11;;;;;;;12.80;5.85;;;;;;;7.63;63.16;99934.75;1368495;95;21511;-83
2022/02/19 09:12:43;;;;;;;21.97;11.85;;;;;;;7.68;63.35;99934.68;1353720;95;21495;-82
2022/02/19 09:15:08;;;;;;;17.70;8.97;;;;;;;7.75;63.33;99942.02;1361432;95;21757;-81
2022/02/19 09:17:34;;;;;;;75.80;41.67;;;;;;;7.78;63.17;99939.09;1363375;95;22425;-80
2022/02/19 09:20:00;;;;;;;23.63;13.40;;;;;;;7.81;63.04;99950.17;1365289;96;21424;-81
2022/02/19 09:22:26;;;;;;;14.27;7.83;;;;;;;7.84;62.64;99947.25;1329904;96;22940;-80
2022/02/19 09:24:52;;;;;;;10.50;5.63;;;;;;;7.87;62.68;99953.55;1360569;96;21395;-80
2022/02/19 09:27:18;;;;;;;218.80;75.93;;;;;;;7.91;62.68;99955.41;1365215;96;21416;-81
2022/02/19 09:29:44;;;;;;;41.90;18.27;;;;;;;7.89;62.68;99966.11;1359713;96;21468;-80
2022/02/19 09:32:11;;;;;;;13.20;8.17;;;;;;;7.92;63.07;99976.86;1357861;96;22452;-80
2022/02/19 09:34:37;;;;;;;18.43;8.50;;;;;;;7.94;63.29;99970.11;1354071;95;21402;-80
2022/02/19 09:37:04;;;;;;;13.40;6.53;;;;;;;7.95;63.30;99975.25;1363023;95;21586;-80
2022/02/19 09:39:30;;;;;;;96.10;52.30;;;;;;;7.97;63.30;99978.59;1361052;96;21402;-80
2022/02/19 09:42:02;;;;;;;48.80;27.27;;;;;;;7.97;63.37;99975.09;1355025;95;21425;-80
2022/02/19 09:44:24;;;;;;;13.37;6.97;;;;;;;7.98;63.54;99972.34;1363113;95;21707;-80
2022/02/19 09:46:51;;;;;;;14.93;8.47;;;;;;;7.99;63.62;99973.16;1366338;95;21446;-80
2022/02/19 09:49:20;;;;;;;12.60;7.63;;;;;;;8.00;63.68;99975.67;1365639;95;22555;-80
2022/02/19 09:51:46;;;;;;;19.93;7.77;;;;;;;8.02;63.71;99975.02;1374228;95;21557;-80
2022/02/19 09:54:12;;;;;;;12.47;5.80;;;;;;;8.04;63.68;99983.63;1369553;95;21544;-80
2022/02/19 09:56:38;;;;;;;11.10;5.73;;;;;;;8.07;63.44;99986.46;1365123;95;21581;-80
2022/02/19 09:59:12;;;;;;;10.20;5.43;;;;;;;8.09;63.08;99987.98;1369822;95;22403;-80
2022/02/19 10:01:36;;;;;;;13.25;6.55;;;;;;;8.13;62.74;99989.35;1362851;95;21408;-81
2022/02/19 10:04:04;;;;;;;17.13;6.03;;;;;;;8.16;62.78;99987.41;1368822;95;23182;-82
2022/02/19 10:06:33;;;;;;;13.47;6.13;;;;;;;8.20;62.61;99994.05;1370812;95;21478;-81
2022/02/19 10:09:15;;;;;;;11.93;5.83;;;;;;;8.21;62.59;99995.73;1371910;95;21431;-81
2022/02/19 10:11:45;;;;;;;32.87;22.03;;;;;;;8.25;62.40;100001.05;1369463;95;21425;-81
2022/02/19 10:14:31;;;;;;;13.07;5.57;;;;;;;8.28;62.50;99992.85;1359782;95;23787;-80
2022/02/19 10:17:22;;;;;;;15.30;8.33;;;;;;;8.31;62.45;99989.92;1385669;93;21987;-83
2022/02/19 10:19:56;;;;;;;7.42;4.42;;;;;;;8.32;62.12;99995.07;1388590;93;21567;-82
2022/02/19 10:22:39;;;;;;;16.50;5.53;;;;;;;8.37;61.56;99998.58;1389341;93;21482;-81
2022/02/19 10:25:14;;;;;;;9.97;5.03;;;;;;;8.41;61.21;100004.45;1389248;93;21630;-83
2022/02/19 10:27:51;;;;;;;8.60;4.23;;;;;;;8.45;61.25;100006.64;1388722;93;21540;-81
2022/02/19 10:30:28;;;;;;;13.00;5.03;;;;;;;8.48;60.99;100006.34;1388900;93;22287;-80
2022/02/19 10:33:03;;;;;;;10.07;4.00;;;;;;;8.50;60.37;100004.41;1365268;95;21624;-85
2022/02/19 10:35:36;;;;;;;9.53;3.80;;;;;;;8.55;60.42;100014.04;1366945;96;21446;-83
2022/02/19 10:38:09;;;;;;;5.87;3.97;;;;;;;8.58;60.64;100020.34;1370406;96;21601;-84
2022/02/19 10:40:46;;;;;;;10.77;4.27;;;;;;;8.63;60.70;100021.70;1358068;96;21350;-83
2022/02/19 10:43:20;;;;;;;7.87;4.00;;;;;;;8.65;60.71;100015.80;1364589;96;21578;-85
2022/02/19 10:46:03;;;;;;;9.90;3.67;;;;;;;8.70;60.51;100020.16;1364767;96;21401;-83
2022/02/19 10:48:36;;;;;;;7.03;3.53;;;;;;;8.72;59.91;100024.81;1370029;95;21468;-84
2022/02/19 10:51:16;;;;;;;6.10;3.30;;;;;;;8.78;59.58;100025.55;1371794;94;21608;-85
2022/02/19 10:53:49;;;;;;;6.00;3.37;;;;;;;8.81;59.17;100023.94;1372517;96;22223;-84
2022/02/19 10:56:16;;;;;;;6.63;3.50;;;;;;;8.86;59.14;100023.02;1372883;95;21607;-84
2022/02/19 10:59:01;;;;;;;6.83;4.07;;;;;;;8.89;58.65;100022.72;1370825;96;21350;-84
2022/02/19 11:01:28;;;;;;;7.50;3.70;;;;;;;8.92;58.57;100032.98;1371499;96;21429;-83
2022/02/19 11:03:55;;;;;;;6.80;3.40;;;;;;;8.94;58.34;100002.47;1362857;96;21668;-84
2022/02/19 11:06:22;;;;;;;4.00;2.50;;;;;;;8.96;57.66;100022.45;1354698;96;21572;-84
2022/02/19 11:08:50;;;;;;;5.53;3.10;;;;;;;8.99;56.91;100011.61;1376098;96;22489;-84
2022/02/19 11:11:16;;;;;;;16.87;5.33;;;;;;;9.02;56.46;100013.13;1364666;96;21497;-81
2022/02/19 11:13:44;;;;;;;16.83;8.13;;;;;;;9.06;56.58;100020.25;1364059;96;22231;-88
2022/02/19 11:16:11;;;;;;;32.10;23.40;;;;;;;9.09;56.54;100013.35;1384337;94;22309;-88
2022/02/19 11:18:37;;;;;;;31.13;26.73;;;;;;;9.13;56.85;100016.06;1374010;95;21510;-88
2022/02/19 11:21:05;;;;;;;14.67;11.03;;;;;;;9.18;55.65;100013.81;1394617;93;21426;-88
2022/02/19 11:23:33;;;;;;;16.83;11.97;;;;;;;9.19;56.40;100008.86;1403426;93;21333;-89
2022/02/19 11:26:01;;;;;;;6.47;2.57;;;;;;;9.26;54.71;100005.48;1386454;93;22551;-88
2022/02/19 11:28:34;;;;;;;5.33;2.40;;;;;;;9.31;53.47;100016.08;1366205;96;22435;-88
2022/02/19 11:31:03;;;;;;;12.50;3.60;;;;;;;9.34;53.66;100018.41;1397295;93;22264;-89
2022/02/19 11:33:31;;;;;;;4.90;3.23;;;;;;;9.35;52.91;100019.60;1383834;94;21506;-87
2022/02/19 11:36:03;;;;;;;7.60;3.23;;;;;;;9.37;52.51;100022.91;1382666;94;21430;-88
2022/02/19 11:38:35;;;;;;;10.40;5.13;;;;;;;9.37;52.30;100018.94;1388701;94;21518;-87
2022/02/19 11:41:06;;;;;;;42.27;19.23;;;;;;;9.40;52.68;100024.41;1388483;94;21573;-88
2022/02/19 11:43:47;;;;;;;31.13;14.37;;;;;;;9.42;52.26;100031.71;1393176;94;21518;-89